Time;durP1;ratioP1;P1;durP2;ratioP2;P2;SDS_P1;SDS_P2;PMS_P1;PMS_P2;Temp;Humidity;BMP_temperature;BMP_pressure;BME280_temperature;BME280_humidity;BME280_pressure;Samples;Min_cycle;Max_cycle;Signal;HPM_P1;HPM_P2
2023/08/02 00:00:34;;;;;;;6.15;2.40;;;;;;;15.38;100.00;99981.75;5315353;28;20161;-69
2023/08/02 00:03:05;;;;;;;5.25;2.70;;;;;;;15.47;100.00;99974.50;5319286;28;20106;-68
2023/08/02 00:05:36;;;;;;;9.00;3.10;;;;;;;15.42;100.00;99982.25;5307201;28;20089;-67
2023/08/02 00:08:08;;;;;;;8.85;3.30;;;;;;;15.48;100.00;99973.50;5316343;28;20043;-69
2023/08/02 00:10:39;;;;;;;6.90;2.63;;;;;;;15.39;100.00;99988.81;5313546;28;20110;-69
2023/08/02 00:13:10;;;;;;;9.43;3.05;;;;;;;15.34;100.00;99985.81;5315981;28;20465;-69
2023/08/02 00:15:42;;;;;;;6.78;2.78;;;;;;;15.34;100.00;99975.06;5319415;28;20063;-68
2023/08/02 00:18:13;;;;;;;7.15;3.15;;;;;;;15.35;100.00;99984.78;5309818;28;20490;-68
2023/08/02 00:20:45;;;;;;;8.10;2.70;;;;;;;15.27;100.00;99984.78;5306318;28;20469;-68
2023/08/02 00:23:16;;;;;;;5.75;2.70;;;;;;;15.33;100.00;99986.78;5319850;28;20028;-68
2023/08/02 00:25:47;;;;;;;7.72;2.65;;;;;;;15.25;100.00;99976.88;5311749;27;20026;-68
2023/08/02 00:28:18;;;;;;;9.38;3.38;;;;;;;15.25;100.00;99978.75;5322150;27;20032;-68
2023/08/02 00:30:50;;;;;;;8.35;3.20;;;;;;;15.28;100.00;99975.69;5316514;28;20674;-68
2023/08/02 00:33:21;;;;;;;6.82;2.88;;;;;;;15.24;100.00;99982.44;5308145;28;20036;-68
2023/08/02 00:35:54;;;;;;;8.80;2.60;;;;;;;15.20;100.00;99983.78;5317413;28;20030;-69
2023/08/02 00:38:25;;;;;;;8.00;2.67;;;;;;;15.23;100.00;99970.00;5314431;28;20064;-68
2023/08/02 00:41:06;;;;;;;8.80;3.40;;;;;;;15.37;100.00;99965.78;5307339;28;20031;-68
2023/08/02 00:43:45;;;;;;;5.95;2.67;;;;;;;15.32;100.00;99960.91;5302647;27;20374;-70
2023/08/02 00:46:19;;;;;;;8.95;3.65;;;;;;;15.40;100.00;99963.59;5311815;28;20024;-69
2023/08/02 00:48:51;;;;;;;7.07;3.05;;;;;;;15.33;100.00;99946.47;5312648;28;20036;-68
2023/08/02 00:51:22;;;;;;;7.63;2.60;;;;;;;15.34;100.00;99937.41;5317980;28;20523;-69
2023/08/02 00:53:53;;;;;;;6.68;2.75;;;;;;;15.36;100.00;99937.22;5310824;28;20027;-68
2023/08/02 00:56:25;;;;;;;9.68;2.70;;;;;;;15.41;100.00;99922.25;5309968;28;20555;-69
2023/08/02 00:58:56;;;;;;;5.95;2.70;;;;;;;15.39;100.00;99923.47;5316255;28;20024;-68
2023/08/02 01:01:27;;;;;;;5.97;2.63;;;;;;;15.45;100.00;99926.28;5314454;28;20478;-68
2023/08/02 01:03:59;;;;;;;7.38;2.70;;;;;;;15.45;100.00;99931.66;5292035;28;20032;-69
2023/08/02 01:06:44;;;;;;;7.97;2.80;;;;;;;15.53;100.00;99921.91;5310520;28;20034;-69
2023/08/02 01:09:34;;;;;;;4.97;2.25;;;;;;;15.62;100.00;99927.09;5308268;28;20068;-68
2023/08/02 01:12:10;;;;;;;7.25;2.65;;;;;;;15.64;100.00;99927.75;5314570;28;20023;-68
2023/08/02 01:14:47;;;;;;;8.45;3.00;;;;;;;15.58;100.00;99930.31;5314940;28;20027;-68
2023/08/02 01:17:19;;;;;;;8.75;2.78;;;;;;;15.57;100.00;99942.06;5318084;28;20098;-68
2023/08/02 01:19:50;;;;;;;7.50;2.90;;;;;;;15.55;100.00;99938.69;5316859;28;20027;-68
2023/08/02 01:22:22;;;;;;;7.40;3.30;;;;;;;15.65;100.00;99932.13;5316325;28;20035;-68
2023/08/02 01:24:53;;;;;;;7.97;2.70;;;;;;;15.63;100.00;99918.03;5318277;28;20028;-69
2023/08/02 01:27:34;;;;;;;6.93;2.80;;;;;;;15.73;100.00;99916.97;5317327;28;20038;-69
2023/08/02 01:30:10;;;;;;;11.20;2.90;;;;;;;15.75;100.00;99928.44;5318404;28;20019;-69
2023/08/02 01:32:42;;;;;;;7.53;2.65;;;;;;;15.74;100.00;99911.44;5311273;28;20020;-68
2023/08/02 01:35:14;;;;;;;8.48;3.15;;;;;;;15.85;100.00;99908.38;5313745;28;20032;-69
2023/08/02 01:37:45;;;;;;;7.57;2.63;;;;;;;15.76;100.00;99913.97;5323917;27;20034;-68
2023/08/02 01:40:17;;;;;;;8.35;3.00;;;;;;;15.74;100.00;99907.91;5313281;28;20446;-68
2023/08/02 01:42:48;;;;;;;8.82;3.10;;;;;;;15.67;100.00;99894.31;5304522;28;20028;-68
2023/08/02 01:45:19;;;;;;;10.05;3.10;;;;;;;15.80;100.00;99888.38;5302482;28;20050;-69
2023/08/02 01:47:51;;;;;;;6.57;2.50;;;;;;;15.78;100.00;99885.91;5305740;28;20477;-68
2023/08/02 01:50:23;;;;;;;10.77;3.28;;;;;;;15.76;100.00;99882.53;5306735;28;20036;-69
2023/08/02 01:52:54;;;;;;;8.20;3.40;;;;;;;15.77;100.00;99883.38;5309800;28;20021;-68
2023/08/02 01:55:25;;;;;;;8.18;2.88;;;;;;;15.85;100.00;99880.63;5307768;28;20815;-68
2023/08/02 01:57:57;;;;;;;7.22;2.90;;;;;;;15.73;100.00;99877.50;5315675;28;20020;-69
2023/08/02 02:00:28;;;;;;;6.90;3.17;;;;;;;15.77;100.00;99867.25;5317352;28;20050;-68
2023/08/02 02:02:59;;;;;;;10.10;2.97;;;;;;;15.78;100.00;99858.13;5304006;28;21478;-68
2023/08/02 02:05:30;;;;;;;10.55;3.40;;;;;;;15.80;100.00;99856.97;5304088;28;20028;-68
2023/08/02 02:08:02;;;;;;;7.97;2.90;;;;;;;15.74;100.00;99846.88;5315877;28;20528;-69
2023/08/02 02:10:33;;;;;;;6.93;2.78;;;;;;;15.75;100.00;99839.69;5316539;27;20115;-69
2023/08/02 02:13:04;;;;;;;8.38;3.10;;;;;;;15.78;100.00;99837.47;5312724;28;20031;-68
2023/08/02 02:15:36;;;;;;;8.52;3.22;;;;;;;15.79;100.00;99841.81;5317079;28;20023;-69
2023/08/02 02:18:07;;;;;;;6.97;2.95;;;;;;;15.74;100.00;99830.75;5306965;28;20085;-69
2023/08/02 02:20:38;;;;;;;7.75;2.80;;;;;;;15.71;100.00;99814.97;5298966;28;20032;-69
2023/08/02 02:23:10;;;;;;;7.88;3.20;;;;;;;15.68;100.00;99812.59;5308647;28;20470;-68
2023/08/02 02:25:41;;;;;;;8.18;3.20;;;;;;;15.78;100.00;99799.81;5316583;28;20207;-69
2023/08/02 02:28:12;;;;;;;7.20;3.00;;;;;;;15.74;100.00;99800.34;5314729;28;20046;-69
2023/08/02 02:30:44;;;;;;;8.07;3.00;;;;;;;15.78;100.00;99777.44;5317991;28;20032;-69
2023/08/02 02:33:15;;;;;;;8.07;2.97;;;;;;;15.87;100.00;99777.22;5305323;28;20020;-69
2023/08/02 02:35:46;;;;;;;7.50;3.45;;;;;;;15.74;100.00;99786.88;5313671;28;20235;-69
2023/08/02 02:38:17;;;;;;;6.15;3.10;;;;;;;15.71;100.00;99780.00;5318462;28;20061;-68
2023/08/02 02:40:49;;;;;;;6.72;2.97;;;;;;;15.74;100.00;99776.13;5314480;28;20115;-68
2023/08/02 02:43:20;;;;;;;7.70;2.97;;;;;;;15.87;100.00;99777.22;5321233;28;20036;-68
2023/08/02 02:45:51;;;;;;;8.50;2.80;;;;;;;15.79;100.00;99774.59;5318233;28;20090;-68
2023/08/02 02:48:23;;;;;;;6.90;2.72;;;;;;;15.85;100.00;99773.88;5317301;28;20469;-68
2023/08/02 02:50:54;;;;;;;6.40;2.78;;;;;;;16.01;100.00;99778.31;5319984;28;20477;-68
2023/08/02 02:53:25;;;;;;;6.68;3.35;;;;;;;15.87;100.00;99781.78;5316821;28;20032;-69
2023/08/02 02:55:57;;;;;;;8.93;3.00;;;;;;;15.87;100.00;99785.28;5311717;28;20031;-68
2023/08/02 02:58:28;;;;;;;7.25;3.00;;;;;;;15.88;100.00;99778.06;5319287;28;20028;-69
2023/08/02 03:00:59;;;;;;;7.63;2.70;;;;;;;15.84;100.00;99763.31;5320638;28;20104;-68
2023/08/02 03:03:31;;;;;;;6.88;2.60;;;;;;;15.93;100.00;99764.91;5313242;28;20035;-69
2023/08/02 03:06:02;;;;;;;7.80;2.55;;;;;;;15.86;100.00;99756.72;5321806;28;20034;-69
2023/08/02 03:08:33;;;;;;;7.50;2.83;;;;;;;15.92;100.00;99730.97;5320924;28;20124;-69
2023/08/02 03:11:05;;;;;;;7.88;2.92;;;;;;;15.87;100.00;99719.91;5311555;28;20058;-68
2023/08/02 03:13:36;;;;;;;11.63;2.97;;;;;;;15.87;100.00;99704.59;5315025;28;20074;-69
2023/08/02 03:16:07;;;;;;;6.43;3.00;;;;;;;15.86;100.00;99708.31;5317244;28;20385;-69
2023/08/02 03:18:39;;;;;;;5.25;2.70;;;;;;;15.88;100.00;99686.63;5318085;28;20031;-69
2023/08/02 03:21:10;;;;;;;8.25;2.85;;;;;;;15.90;100.00;99689.97;5320460;28;20074;-68
2023/08/02 03:23:42;;;;;;;5.57;2.75;;;;;;;15.88;100.00;99687.44;5313737;28;20076;-68
2023/08/02 03:26:13;;;;;;;8.57;3.05;;;;;;;15.96;100.00;99680.34;5322215;28;20031;-69
2023/08/02 03:28:44;;;;;;;8.60;3.63;;;;;;;15.99;100.00;99674.56;5313467;28;20035;-69
2023/08/02 03:31:16;;;;;;;5.95;2.90;;;;;;;15.90;100.00;99670.28;5313326;28;20016;-69
2023/08/02 03:33:47;;;;;;;7.13;3.20;;;;;;;15.91;100.00;99677.34;5316882;28;20579;-69
2023/08/02 03:36:19;;;;;;;6.07;3.15;;;;;;;15.98;100.00;99679.13;5318710;27;20070;-68
2023/08/02 03:38:50;;;;;;;6.13;3.33;;;;;;;15.92;100.00;99684.41;5315420;28;20466;-68
2023/08/02 03:41:21;;;;;;;7.22;3.30;;;;;;;15.85;100.00;99676.22;5321275;28;20051;-68
2023/08/02 03:43:53;;;;;;;5.93;3.42;;;;;;;15.83;100.00;99668.31;5314520;28;20080;-68
2023/08/02 03:46:24;;;;;;;7.03;3.63;;;;;;;15.85;100.00;99657.38;5320840;28;20129;-68
2023/08/02 03:48:55;;;;;;;6.93;3.33;;;;;;;15.80;100.00;99649.00;5316589;28;20026;-69
2023/08/02 03:51:27;;;;;;;7.70;3.08;;;;;;;15.82;100.00;99649.66;5319944;28;20027;-69
2023/08/02 03:54:00;;;;;;;6.70;3.45;;;;;;;15.78;100.00;99635.78;5314859;27;20019;-68
2023/08/02 03:56:31;;;;;;;7.80;3.58;;;;;;;15.83;100.00;99630.66;5309283;28;20036;-68
2023/08/02 03:59:02;;;;;;;9.52;3.70;;;;;;;15.86;100.00;99633.00;5318667;28;20493;-68
2023/08/02 04:01:33;;;;;;;7.18;3.33;;;;;;;15.86;100.00;99629.47;5321485;28;20057;-69
2023/08/02 04:04:05;;;;;;;7.65;3.50;;;;;;;15.87;100.00;99615.00;5310573;28;20024;-68
2023/08/02 04:06:36;;;;;;;6.65;3.30;;;;;;;15.84;100.00;99605.44;5308180;28;20054;-68
2023/08/02 04:09:07;;;;;;;6.63;3.50;;;;;;;15.81;100.00;99594.22;5315199;28;20044;-69
2023/08/02 04:11:39;;;;;;;8.13;3.80;;;;;;;15.86;100.00;99597.19;5313198;28;20016;-69
2023/08/02 04:14:10;;;;;;;7.25;3.63;;;;;;;15.81;100.00;99589.66;5309402;28;20367;-69
2023/08/02 04:16:41;;;;;;;10.68;3.35;;;;;;;15.81;100.00;99576.22;5309386;28;20027;-68
2023/08/02 04:19:13;;;;;;;7.05;3.40;;;;;;;15.85;100.00;99574.00;5313687;28;20030;-69
2023/08/02 04:21:44;;;;;;;9.52;4.32;;;;;;;15.82;100.00;99572.53;5309095;28;20505;-69
2023/08/02 04:24:15;;;;;;;8.85;3.78;;;;;;;15.84;100.00;99570.47;5313735;28;20023;-68
2023/08/02 04:26:47;;;;;;;8.90;4.18;;;;;;;15.88;100.00;99558.34;5313897;28;20106;-69
2023/08/02 04:29:18;;;;;;;6.93;4.00;;;;;;;15.86;100.00;99549.63;5315975;27;20035;-69
2023/08/02 04:31:50;;;;;;;6.97;3.55;;;;;;;15.85;100.00;99534.47;5319127;28;20042;-69
2023/08/02 04:34:21;;;;;;;6.70;3.80;;;;;;;15.86;100.00;99528.09;5306037;28;20036;-69
2023/08/02 04:36:52;;;;;;;10.57;3.70;;;;;;;15.90;100.00;99520.50;5317102;28;20125;-69
2023/08/02 04:39:24;;;;;;;9.02;4.05;;;;;;;15.95;100.00;99530.69;5307707;28;20046;-69
2023/08/02 04:41:58;;;;;;;8.68;4.47;;;;;;;15.95;100.00;99522.63;5306831;28;20051;-69
2023/08/02 04:44:29;;;;;;;5.68;3.47;;;;;;;16.09;100.00;99508.34;5320649;28;20095;-69
2023/08/02 04:47:00;;;;;;;7.80;3.85;;;;;;;16.14;100.00;99497.00;5314807;28;20549;-69
2023/08/02 04:49:32;;;;;;;9.63;4.22;;;;;;;16.04;100.00;99489.22;5314130;28;20168;-68
2023/08/02 04:52:04;;;;;;;8.45;4.00;;;;;;;16.05;100.00;99472.91;5316347;28;20018;-69
2023/08/02 04:54:35;;;;;;;7.47;3.95;;;;;;;15.97;100.00;99474.84;5317484;28;20023;-68
2023/08/02 04:57:06;;;;;;;5.50;3.47;;;;;;;16.00;100.00;99475.31;5315845;28;20368;-69
2023/08/02 04:59:37;;;;;;;6.60;4.03;;;;;;;15.95;100.00;99466.94;5313177;27;20031;-68
2023/08/02 05:02:09;;;;;;;7.85;4.40;;;;;;;15.94;100.00;99457.22;5315547;28;20519;-69
2023/08/02 05:04:40;;;;;;;6.82;3.85;;;;;;;15.99;100.00;99470.97;5306388;28;20023;-68
2023/08/02 05:07:11;;;;;;;8.15;4.13;;;;;;;16.17;100.00;99459.81;5320063;28;20089;-68
2023/08/02 05:09:43;;;;;;;10.70;4.65;;;;;;;16.07;100.00;99456.59;5311473;28;20044;-68
2023/08/02 05:12:14;;;;;;;8.05;4.82;;;;;;;15.98;100.00;99457.69;5315996;28;20130;-68
2023/08/02 05:14:46;;;;;;;9.32;4.38;;;;;;;15.93;100.00;99458.25;5314497;28;20021;-68
2023/08/02 05:17:17;;;;;;;9.68;4.60;;;;;;;15.91;100.00;99456.75;5316441;27;20032;-67
2023/08/02 05:19:48;;;;;;;8.30;4.65;;;;;;;15.94;100.00;99448.34;5306553;28;20028;-66
2023/08/02 05:22:20;;;;;;;8.57;4.88;;;;;;;15.90;100.00;99436.25;5316693;28;20024;-66
2023/08/02 05:24:52;;;;;;;10.85;4.97;;;;;;;16.03;100.00;99436.44;5311392;28;20067;-66
2023/08/02 05:27:23;;;;;;;9.02;5.25;;;;;;;15.93;100.00;99435.91;5319281;28;20031;-66
2023/08/02 05:29:55;;;;;;;9.40;4.57;;;;;;;15.97;100.00;99432.63;5305742;28;20043;-66
2023/08/02 05:32:26;;;;;;;8.75;4.70;;;;;;;15.95;100.00;99421.22;5312667;28;20027;-66
2023/08/02 05:34:57;;;;;;;11.77;4.95;;;;;;;15.87;100.00;99408.72;5311943;28;20497;-66
2023/08/02 05:37:29;;;;;;;7.85;4.68;;;;;;;15.83;100.00;99399.34;5305271;28;20024;-66
2023/08/02 05:40:01;;;;;;;7.85;5.00;;;;;;;15.87;100.00;99402.50;5311759;28;20488;-66
2023/08/02 05:42:32;;;;;;;8.27;5.03;;;;;;;15.82;100.00;99397.69;5308513;27;20028;-65
2023/08/02 05:45:04;;;;;;;9.05;5.47;;;;;;;15.77;100.00;99383.97;5319854;27;20123;-67
2023/08/02 05:47:36;;;;;;;10.32;5.18;;;;;;;15.74;100.00;99383.50;5316141;28;20024;-65
2023/08/02 05:50:07;;;;;;;10.40;5.15;;;;;;;15.71;100.00;99376.63;5315241;28;20020;-65
2023/08/02 05:52:39;;;;;;;11.82;5.60;;;;;;;15.72;100.00;99380.97;5314919;28;20054;-65
2023/08/02 05:55:10;;;;;;;8.90;5.10;;;;;;;15.76;100.00;99374.25;5308653;28;20039;-65
2023/08/02 05:57:42;;;;;;;6.97;4.40;;;;;;;15.76;100.00;99362.63;5314473;28;20056;-64
2023/08/02 06:00:14;;;;;;;7.57;4.97;;;;;;;15.79;100.00;99354.22;5319278;27;20084;-65
2023/08/02 06:02:46;;;;;;;11.85;5.15;;;;;;;15.76;100.00;99328.53;5311288;28;20027;-64
2023/08/02 06:05:17;;;;;;;8.43;4.43;;;;;;;15.74;100.00;99322.47;5308559;28;20039;-65
2023/08/02 06:07:48;;;;;;;7.07;4.97;;;;;;;15.76;100.00;99319.63;5317767;28;20032;-65
2023/08/02 06:10:20;;;;;;;8.35;4.82;;;;;;;15.84;100.00;99304.22;5316450;28;20032;-64
2023/08/02 06:12:51;;;;;;;8.13;4.78;;;;;;;15.82;100.00;99302.72;5313337;28;20518;-64
2023/08/02 06:15:23;;;;;;;6.72;4.18;;;;;;;15.93;100.00;99296.03;5316575;28;20111;-65
2023/08/02 06:17:54;;;;;;;6.50;4.10;;;;;;;15.87;100.00;99290.38;5312005;28;20093;-64
2023/08/02 06:20:26;;;;;;;7.07;4.50;;;;;;;15.95;100.00;99291.28;5318520;28;20578;-64
2023/08/02 06:22:57;;;;;;;6.00;4.30;;;;;;;16.00;100.00;99278.94;5310834;28;20561;-65
2023/08/02 06:25:29;;;;;;;5.97;3.85;;;;;;;15.99;100.00;99271.03;5314122;28;20024;-64
2023/08/02 06:28:00;;;;;;;7.13;3.90;;;;;;;15.95;100.00;99261.69;5307858;28;20034;-64
2023/08/02 06:30:31;;;;;;;5.72;3.55;;;;;;;16.02;100.00;99259.91;5315897;28;20023;-66
2023/08/02 06:33:03;;;;;;;4.47;3.47;;;;;;;15.98;100.00;99254.06;5312742;28;20030;-65
2023/08/02 06:35:34;;;;;;;6.88;4.07;;;;;;;16.04;100.00;99245.22;5310931;28;20081;-64
2023/08/02 06:38:06;;;;;;;5.93;3.70;;;;;;;16.13;100.00;99237.88;5311001;28;20034;-65
2023/08/02 06:40:37;;;;;;;8.30;3.63;;;;;;;16.12;100.00;99232.69;5319748;28;20027;-65
2023/08/02 06:43:08;;;;;;;7.10;4.07;;;;;;;16.18;100.00;99227.34;5314026;28;20154;-65
2023/08/02 06:45:46;;;;;;;7.35;4.18;;;;;;;16.19;100.00;99215.56;5312120;28;20023;-65
2023/08/02 06:48:19;;;;;;;5.80;4.03;;;;;;;16.15;100.00;99210.78;5315440;28;20493;-65
2023/08/02 06:50:52;;;;;;;5.75;3.80;;;;;;;16.13;100.00;99205.59;5318303;28;20182;-65
2023/08/02 06:53:23;;;;;;;6.43;3.90;;;;;;;16.12;100.00;99197.69;5308538;28;20515;-65
2023/08/02 06:55:55;;;;;;;5.70;3.75;;;;;;;16.17;100.00;99200.66;5318333;28;20111;-65
2023/08/02 06:58:26;;;;;;;6.10;3.90;;;;;;;16.11;100.00;99182.56;5325513;28;20519;-65
2023/08/02 07:00:57;;;;;;;6.85;3.60;;;;;;;16.13;100.00;99169.75;5313766;28;20032;-65
2023/08/02 07:03:29;;;;;;;6.03;3.40;;;;;;;16.19;100.00;99169.81;5316288;28;20034;-65
2023/08/02 07:06:00;;;;;;;4.40;3.00;;;;;;;16.18;100.00;99160.06;5310753;28;20027;-65
2023/08/02 07:08:31;;;;;;;6.40;3.17;;;;;;;16.17;100.00;99152.22;5317372;28;20135;-65
2023/08/02 07:11:04;;;;;;;5.28;3.00;;;;;;;16.17;100.00;99147.66;5309932;28;20176;-65
2023/08/02 07:13:42;;;;;;;5.43;3.40;;;;;;;16.29;100.00;99149.81;5310796;28;20434;-65
2023/08/02 07:16:14;;;;;;;5.10;3.28;;;;;;;16.37;100.00;99149.66;5317549;28;20070;-65
2023/08/02 07:18:45;;;;;;;4.85;3.47;;;;;;;16.36;100.00;99146.13;5315844;28;20112;-65
2023/08/02 07:21:16;;;;;;;4.57;3.33;;;;;;;16.32;100.00;99138.63;5316803;28;20039;-65
2023/08/02 07:23:48;;;;;;;5.50;3.30;;;;;;;16.37;100.00;99138.88;5316488;28;20112;-65
2023/08/02 07:26:19;;;;;;;5.78;3.38;;;;;;;16.42;100.00;99134.56;5298946;28;20039;-65
2023/08/02 07:28:51;;;;;;;5.30;3.08;;;;;;;16.44;100.00;99132.53;5317937;28;20022;-65
2023/08/02 07:31:22;;;;;;;6.47;3.47;;;;;;;16.43;100.00;99130.03;5318683;28;20027;-65
2023/08/02 07:33:53;;;;;;;5.07;3.13;;;;;;;16.54;100.00;99129.47;5304844;28;20043;-65
2023/08/02 07:36:25;;;;;;;5.15;3.47;;;;;;;16.52;100.00;99131.53;5313461;28;20062;-65
2023/08/02 07:38:56;;;;;;;5.05;3.58;;;;;;;16.59;100.00;99112.72;5309544;28;20027;-65
2023/08/02 07:41:28;;;;;;;6.70;3.22;;;;;;;16.59;100.00;99110.88;5321140;28;20032;-65
2023/08/02 07:44:00;;;;;;;6.75;3.55;;;;;;;16.72;100.00;99102.03;5316905;28;20051;-66
2023/08/02 07:46:31;;;;;;;6.45;3.65;;;;;;;16.82;100.00;99091.72;5320246;28;20492;-65
2023/08/02 07:49:02;;;;;;;6.15;3.80;;;;;;;16.84;100.00;99089.66;5321099;28;20024;-66
2023/08/02 07:51:34;;;;;;;5.50;3.50;;;;;;;16.83;100.00;99085.31;5312858;28;20023;-65
2023/08/02 07:54:05;;;;;;;5.70;3.65;;;;;;;16.92;100.00;99083.28;5316104;28;20031;-66
2023/08/02 07:56:36;;;;;;;5.40;3.17;;;;;;;16.97;100.00;99079.97;5314709;28;20031;-65
2023/08/02 07:59:08;;;;;;;5.38;3.00;;;;;;;16.92;100.00;99074.38;5317256;28;20114;-65
2023/08/02 08:01:42;;;;;;;5.50;3.38;;;;;;;17.02;100.00;99072.94;5312546;28;20084;-65
2023/08/02 08:04:14;;;;;;;5.72;3.22;;;;;;;17.07;100.00;99064.25;5318370;27;20023;-66
2023/08/02 08:06:47;;;;;;;5.57;3.35;;;;;;;17.13;100.00;99065.31;5309508;28;20042;-66
2023/08/02 08:09:23;;;;;;;4.03;3.05;;;;;;;17.18;100.00;99054.72;5306381;28;20405;-65
2023/08/02 08:11:55;;;;;;;5.38;3.42;;;;;;;17.22;100.00;99058.66;5314666;28;20019;-65
2023/08/02 08:14:26;;;;;;;3.70;2.60;;;;;;;17.29;100.00;99056.81;5308724;28;20035;-65
2023/08/02 08:16:58;;;;;;;4.53;2.53;;;;;;;17.31;100.00;99062.84;5311093;28;20028;-66
2023/08/02 08:19:31;;;;;;;4.13;2.10;;;;;;;17.48;100.00;99060.59;5312584;28;20473;-66
2023/08/02 08:22:03;;;;;;;4.05;2.30;;;;;;;17.45;100.00;99055.63;5321210;28;20051;-65
2023/08/02 08:24:34;;;;;;;3.42;2.10;;;;;;;17.45;100.00;99036.75;5311434;28;20115;-65
2023/08/02 08:27:06;;;;;;;3.55;2.05;;;;;;;17.47;100.00;99034.66;5304125;28;20115;-66
2023/08/02 08:29:37;;;;;;;4.00;2.10;;;;;;;17.73;100.00;99033.81;5312658;28;20092;-65
2023/08/02 08:32:08;;;;;;;2.95;1.55;;;;;;;18.01;100.00;99040.91;5317229;28;20027;-65
2023/08/02 08:34:42;;;;;;;2.83;1.73;;;;;;;17.86;100.00;99051.09;5310802;28;20031;-65
2023/08/02 08:37:13;;;;;;;3.47;1.65;;;;;;;17.82;100.00;99048.75;5316703;28;20039;-65
2023/08/02 08:39:44;;;;;;;3.45;1.77;;;;;;;17.69;100.00;99039.84;5307355;28;20146;-65
2023/08/02 08:42:16;;;;;;;3.95;2.40;;;;;;;17.83;100.00;99044.19;5305484;28;20027;-65
2023/08/02 08:44:48;;;;;;;3.63;2.35;;;;;;;17.88;100.00;99043.59;5315967;28;20462;-65
2023/08/02 08:47:21;;;;;;;4.18;2.72;;;;;;;18.06;100.00;99032.97;5311368;28;20065;-65
2023/08/02 08:49:59;;;;;;;5.60;2.95;;;;;;;18.15;100.00;99047.91;5310274;28;20466;-65
2023/08/02 08:52:33;;;;;;;4.32;3.05;;;;;;;18.19;100.00;99041.03;5317812;28;20019;-65
2023/08/02 08:55:08;;;;;;;4.22;3.03;;;;;;;18.28;100.00;99038.13;5310483;28;20035;-65
2023/08/02 08:57:41;;;;;;;3.90;3.22;;;;;;;18.39;100.00;99029.38;5314252;28;20035;-65
2023/08/02 09:00:15;;;;;;;4.63;3.55;;;;;;;18.51;100.00;99032.25;5317640;28;20118;-66
2023/08/02 09:02:47;;;;;;;5.10;3.90;;;;;;;18.59;100.00;99032.00;5309898;28;20039;-65
2023/08/02 09:05:20;;;;;;;5.35;4.05;;;;;;;18.65;100.00;99014.09;5317713;28;20493;-66
2023/08/02 09:07:59;;;;;;;4.90;4.40;;;;;;;18.84;100.00;99018.59;5316161;28;20023;-66
2023/08/02 09:10:32;;;;;;;5.53;4.15;;;;;;;18.95;100.00;99006.28;5310758;28;20038;-66
2023/08/02 09:13:04;;;;;;;5.05;4.55;;;;;;;19.14;100.00;99007.22;5315762;27;20019;-66
2023/08/02 09:15:35;;;;;;;6.63;4.22;;;;;;;19.14;100.00;99002.63;5318564;28;20485;-66
2023/08/02 09:18:06;;;;;;;5.47;4.60;;;;;;;19.24;100.00;98998.63;5310560;28;20115;-66
2023/08/02 09:20:38;;;;;;;5.30;4.80;;;;;;;19.26;100.00;98994.63;5319536;28;20023;-65
2023/08/02 09:23:15;;;;;;;5.18;4.68;;;;;;;19.38;100.00;98992.84;5313271;28;20423;-66
2023/08/02 09:25:46;;;;;;;5.28;4.38;;;;;;;19.49;100.00;98987.81;5309289;28;20393;-65
2023/08/02 09:28:18;;;;;;;5.05;4.60;;;;;;;19.46;100.00;98978.22;5311068;28;20042;-66
2023/08/02 09:30:49;;;;;;;5.18;4.68;;;;;;;19.50;100.00;98973.22;5315555;28;20035;-65
2023/08/02 09:33:21;;;;;;;4.50;4.10;;;;;;;19.62;100.00;98974.16;5313933;28;20020;-66
2023/08/02 09:35:52;;;;;;;5.72;4.20;;;;;;;19.56;100.00;98969.66;5312349;28;20243;-66
2023/08/02 09:38:24;;;;;;;4.72;4.00;;;;;;;19.62;100.00;98973.31;5306797;28;20095;-66
2023/08/02 09:40:55;;;;;;;4.05;3.65;;;;;;;19.55;100.00;98966.09;5305071;28;20030;-66
2023/08/02 09:43:27;;;;;;;4.07;3.67;;;;;;;19.72;100.00;98962.84;5313864;28;20114;-66
2023/08/02 09:45:58;;;;;;;4.70;4.28;;;;;;;19.89;100.00;98963.91;5313340;28;20068;-66
2023/08/02 09:48:36;;;;;;;4.53;4.13;;;;;;;20.09;100.00;98955.56;5313491;28;20072;-66
2023/08/02 09:51:08;;;;;;;5.25;3.85;;;;;;;20.20;100.00;98958.59;5306704;28;20055;-67
2023/08/02 09:53:40;;;;;;;4.38;3.95;;;;;;;20.41;100.00;98951.88;5313547;28;20028;-67
2023/08/02 09:56:11;;;;;;;4.45;3.17;;;;;;;20.43;100.00;98950.59;5319723;27;20071;-66
2023/08/02 09:58:44;;;;;;;5.13;2.50;;;;;;;20.37;100.00;98949.59;5313289;28;20047;-67
2023/08/02 10:01:16;;;;;;;3.80;2.40;;;;;;;20.39;100.00;98946.69;5319933;28;20058;-66
2023/08/02 10:03:52;;;;;;;3.75;2.25;;;;;;;20.45;100.00;98951.19;5316981;28;20098;-66
2023/08/02 10:06:31;;;;;;;2.90;1.83;;;;;;;20.52;100.00;98956.53;5318686;28;20102;-66
2023/08/02 10:09:05;;;;;;;3.28;2.10;;;;;;;20.49;100.00;98944.25;5305518;28;20047;-66
2023/08/02 10:11:50;;;;;;;4.18;2.03;;;;;;;20.72;100.00;98946.25;5318424;28;20149;-70
2023/08/02 10:14:22;;;;;;;3.13;1.95;;;;;;;20.81;100.00;98952.19;5311825;28;20031;-66
2023/08/02 10:16:55;;;;;;;3.47;1.95;;;;;;;20.94;100.00;98924.88;5318402;28;20023;-66
2023/08/02 10:19:28;;;;;;;2.55;1.75;;;;;;;20.90;100.00;98918.28;5314786;28;20496;-66
2023/08/02 10:22:01;;;;;;;2.47;1.70;;;;;;;21.00;100.00;98906.00;5317400;28;20553;-66
2023/08/02 10:24:32;;;;;;;2.65;1.40;;;;;;;21.03;100.00;98905.56;5319565;28;20051;-66
2023/08/02 10:27:06;;;;;;;2.40;1.65;;;;;;;21.10;100.00;98898.97;5318090;28;20420;-66
2023/08/02 10:29:39;;;;;;;3.28;1.70;;;;;;;21.14;100.00;98893.91;5315038;28;20043;-67
2023/08/02 10:32:14;;;;;;;2.47;1.73;;;;;;;21.12;100.00;98910.41;5311836;28;20020;-66
2023/08/02 10:34:51;;;;;;;2.72;1.60;;;;;;;21.03;100.00;98887.38;5302329;28;20016;-67
2023/08/02 10:37:22;;;;;;;2.65;1.50;;;;;;;21.00;100.00;98879.75;5318002;28;20038;-66
2023/08/02 10:39:54;;;;;;;2.40;1.65;;;;;;;20.96;100.00;98883.97;5310831;28;20027;-67
2023/08/02 10:42:29;;;;;;;2.85;1.60;;;;;;;20.82;100.00;98877.09;5317700;28;20023;-67
2023/08/02 10:45:10;;;;;;;3.15;1.38;;;;;;;20.78;100.00;98868.63;5307842;28;20043;-68
2023/08/02 10:47:42;;;;;;;2.78;1.63;;;;;;;20.75;100.00;98866.38;5312367;28;20031;-67
2023/08/02 10:50:44;;;;;;;2.70;1.77;;;;;;;20.84;100.00;98881.22;5307376;28;20472;-67
2023/08/02 10:53:15;;;;;;;2.33;1.60;;;;;;;20.75;100.00;98882.66;5306988;28;20027;-67
2023/08/02 10:56:10;;;;;;;4.15;1.70;;;;;;;20.78;100.00;98876.75;5303984;28;20042;-66
2023/08/02 10:58:49;;;;;;;3.20;2.10;;;;;;;20.54;100.00;98848.75;5318460;28;20028;-66
2023/08/02 11:01:20;;;;;;;3.50;2.28;;;;;;;20.68;100.00;98847.50;5306966;28;20363;-66
2023/08/02 11:03:52;;;;;;;2.92;2.05;;;;;;;20.73;100.00;98842.22;5313767;28;20053;-66
2023/08/02 11:06:28;;;;;;;4.22;3.25;;;;;;;20.77;100.00;98837.16;5309238;28;20031;-65
2023/08/02 11:09:00;;;;;;;3.13;2.03;;;;;;;20.81;100.00;98842.94;5318845;28;20061;-65
2023/08/02 11:11:33;;;;;;;4.07;2.60;;;;;;;20.67;100.00;98847.72;5314636;28;20024;-65
2023/08/02 11:14:05;;;;;;;3.73;2.53;;;;;;;20.59;100.00;98859.69;5314866;28;20469;-66
2023/08/02 11:16:40;;;;;;;4.80;3.25;;;;;;;20.53;100.00;98852.50;5311341;28;20066;-69
2023/08/02 11:19:13;;;;;;;11.10;4.55;;;;;;;20.58;100.00;98855.34;5314978;28;20523;-70
2023/08/02 11:21:55;;;;;;;10.10;3.70;;;;;;;20.62;100.00;98870.13;5325810;27;20480;-68
2023/08/02 11:24:27;;;;;;;4.60;2.58;;;;;;;20.43;100.00;98868.50;5320312;28;20039;-68
2023/08/02 11:26:59;;;;;;;4.90;2.65;;;;;;;20.33;100.00;98860.94;5321907;28;20477;-68
2023/08/02 11:29:31;;;;;;;3.50;2.40;;;;;;;20.37;100.00;98867.53;5315416;28;20420;-68
2023/08/02 11:32:05;;;;;;;4.70;2.85;;;;;;;20.28;100.00;98871.63;5319830;28;20016;-67
2023/08/02 11:34:36;;;;;;;4.95;3.20;;;;;;;20.32;100.00;98861.97;5318847;28;20436;-67
2023/08/02 11:37:08;;;;;;;5.30;3.72;;;;;;;20.52;100.00;98859.81;5316851;28;20033;-67
2023/08/02 11:39:50;;;;;;;6.35;3.85;;;;;;;20.55;100.00;98859.31;5317250;28;20031;-67
2023/08/02 11:42:22;;;;;;;5.55;3.63;;;;;;;20.58;100.00;98849.94;5310424;28;20043;-67
2023/08/02 11:44:54;;;;;;;5.53;4.50;;;;;;;20.77;100.00;98839.88;5311251;28;20036;-67
2023/08/02 11:47:34;;;;;;;6.53;4.55;;;;;;;20.82;100.00;98855.44;5319358;28;20022;-67